Data for 11/30/2014

Time Sea-Level Adjusted Pressure Absolute Pressure Temperature Relative Humidity Dew Point   
(mb) (inHg) (mb) (inHg) (C) (F) (%) (C) (F)
00:05 1012 29.88 841 24.83 -19 -2.3 78 -22 -7.6
00:10 1012 29.88 841 24.83 -18.9 -2 78 -21.8 -7.3
00:15 1012 29.88 841 24.83 -18.7 -1.7 79 -21.5 -6.7
00:20 1012 29.88 842 24.86 -18.6 -1.4 79 -21.4 -6.5
00:25 1012 29.88 842 24.86 -18.5 -1.3 79 -21.3 -6.4
00:30 1013 29.91 842 24.86 -18.6 -1.5 79 -21.4 -6.6
00:35 1013 29.91 842 24.86 -18.7 -1.6 80 -21.2 -6.2
00:40 1013 29.91 842 24.86 -18.6 -1.5 79 -21.4 -6.5
00:45 1013 29.91 842 24.86 -18.8 -1.9 81 -21.4 -6.4
00:50 1013 29.91 842 24.86 -18.7 -1.7 80 -21.3 -6.4
00:55 1013 29.91 842 24.86 -18.6 -1.5 81 -21.1 -6
01:00 1013 29.91 842 24.86 -18.5 -1.4 80 -21.3 -6.3
01:05 1013 29.91 842 24.86 -18.7 -1.7 82 -21.1 -6.1
01:10 1013 29.91 843 24.89 -18.4 -1.2 79 -21.2 -6.2
01:15 1014 29.94 843 24.89 -18.5 -1.3 80 -21.2 -6.1
01:20 1014 29.94 843 24.89 -18.5 -1.3 80 -21.1 -6
01:25 1014 29.94 843 24.89 -18.4 -1.2 80 -21 -5.8
01:30 1014 29.94 843 24.89 -18.3 -1 80 -21 -5.9
01:35 1014 29.94 843 24.89 -18.4 -1.1 80 -21 -5.9
01:40 1014 29.94 843 24.89 -18.5 -1.2 80 -21.2 -6.1
01:45 1014 29.94 843 24.89 -18.5 -1.4 80 -21.2 -6.1
01:50 1014 29.94 843 24.89 -18.6 -1.4 79 -21.3 -6.4
01:55 1014 29.94 843 24.89 -18.6 -1.5 81 -21.2 -6.1
02:00 1014 29.94 843 24.89 -18.6 -1.4 80 -21.2 -6.2
02:05 1014 29.94 843 24.89 -18.6 -1.4 79 -21.3 -6.4
02:10 1014 29.94 843 24.89 -18.7 -1.6 80 -21.4 -6.4
02:15 1014 29.94 844 24.92 -18.6 -1.5 80 -21.3 -6.4
02:20 1015 29.97 844 24.92 -18.6 -1.6 80 -21.3 -6.3
02:25 1015 29.97 844 24.92 -18.6 -1.4 80 -21.3 -6.3
02:30 1015 29.97 844 24.92 -18.6 -1.4 80 -21.2 -6.2
02:35 1015 29.97 844 24.92 -18.5 -1.3 80 -21.1 -6
02:40 1015 29.97 844 24.92 -18.5 -1.2 79 -21.3 -6.4
02:45 1015 29.97 844 24.92 -18.8 -1.8 80 -21.5 -6.7
02:50 1015 29.97 844 24.92 -18.9 -1.9 80 -21.6 -6.8
02:55 1015 29.97 844 24.92 -19 -2.2 80 -21.6 -7
03:00 1015 29.97 844 24.92 -19 -2.2 80 -21.6 -6.8
03:05 1015 29.97 844 24.92 -18.9 -2 80 -21.6 -6.8
03:10 1015 29.97 844 24.92 -18.8 -1.8 79 -21.6 -6.8
03:15 1015 29.97 845 24.95 -18.9 -2 79 -21.7 -7.1
03:20 1015 29.97 845 24.95 -18.9 -2.1 80 -21.6 -6.9
03:25 1016 30 845 24.95 -18.9 -2 79 -21.6 -7
03:30 1016 30 845 24.95 -18.9 -1.9 79 -21.7 -7
03:35 1016 30 845 24.95 -18.9 -2 79 -21.7 -7
03:40 1016 30 845 24.95 -18.9 -2 79 -21.7 -7
03:45 1016 30 845 24.95 -19.1 -2.3 80 -21.8 -7.2
03:50 1016 30 845 24.95 -19.1 -2.5 79 -21.9 -7.3
03:55 1016 30 845 24.95 -19.3 -2.8 80 -21.9 -7.5
04:00 1016 30 845 24.95 -19.4 -2.9 81 -22 -7.5
04:05 1016 30 845 24.95 -19.5 -3 81 -22 -7.6
04:10 1016 30 845 24.95 -19.5 -3.1 81 -22.1 -7.7
04:15 1016 30 845 24.95 -19.6 -3.3 81 -22.1 -7.9
04:20 1016 30 845 24.95 -19.7 -3.5 81 -22.2 -8
04:25 1016 30 845 24.95 -19.9 -3.8 81 -22.4 -8.3
04:30 1016 30 845 24.95 -19.9 -3.8 81 -22.4 -8.3
04:35 1016 30 845 24.95 -19.9 -3.8 81 -22.4 -8.4
04:40 1016 30 845 24.95 -20 -4 81 -22.5 -8.5
04:45 1016 30 845 24.95 -20.1 -4.1 81 -22.6 -8.6
04:50 1016 30 845 24.95 -20.1 -4.2 82 -22.5 -8.4
04:55 1016 30 845 24.95 -19.9 -3.8 81 -22.4 -8.3
05:00 1016 30 845 24.95 -19.8 -3.6 81 -22.3 -8.2
05:05 1016 30 845 24.95 -19.9 -3.8 80 -22.5 -8.5
05:10 1016 30 845 24.95 -20.1 -4.2 80 -22.7 -8.8
05:15 1016 30 845 24.95 -20.2 -4.4 81 -22.7 -8.8
05:20 1016 30 845 24.95 -20.4 -4.6 82 -22.7 -8.8
05:25 1016 30 845 24.95 -20.3 -4.6 81 -22.8 -9
05:30 1016 30 845 24.95 -20.4 -4.7 81 -22.9 -9.2
05:35 1016 30 846 24.98 -20.4 -4.6 81 -22.8 -9.1
05:40 1016 30 846 24.98 -20.4 -4.7 81 -22.8 -9
05:45 1016 30 846 24.98 -20.4 -4.6 82 -22.7 -8.9
05:50 1016 30 846 24.98 -20.3 -4.6 81 -22.8 -9
05:55 1016 30 846 24.98 -20.5 -4.9 81 -22.9 -9.2
06:00 1017 30.03 846 24.98 -20.5 -4.9 80 -23.1 -9.5
06:05 1017 30.03 846 24.98 -20.6 -5.1 80 -23.2 -9.8
06:10 1017 30.03 846 24.98 -20.6 -5.1 80 -23.3 -9.9
06:15 1017 30.03 846 24.98 -20.7 -5.2 80 -23.3 -9.9
06:20 1017 30.03 846 24.98 -20.7 -5.2 80 -23.3 -9.9
06:25 1017 30.03 846 24.98 -20.7 -5.2 80 -23.3 -9.9
06:30 1017 30.03 846 24.98 -20.8 -5.4 79 -23.6 -10.4
06:35 1017 30.03 846 24.98 -21 -5.9 80 -23.6 -10.4
06:40 1017 30.03 846 24.98 -20.9 -5.7 80 -23.5 -10.4
06:45 1017 30.03 846 24.98 -21.1 -5.9 79 -23.7 -10.7
06:50 1017 30.03 846 24.98 -21.3 -6.3 81 -23.7 -10.7
06:55 1017 30.03 846 24.98 -21.1 -6 81 -23.6 -10.4
07:00 1017 30.03 846 24.98 -21.1 -5.9 80 -23.7 -10.6
07:05 1017 30.03 846 24.98 -21.2 -6.1 81 -23.6 -10.5
07:10 1017 30.03 847 25.01 -21.1 -6 81 -23.6 -10.5
07:15 1017 30.03 847 25.01 -21.2 -6.2 80 -23.8 -10.9
07:20 1017 30.03 847 25.01 -21.3 -6.3 80 -23.9 -10.9
07:25 1018 30.06 847 25.01 -21.3 -6.4 80 -23.9 -11.1
07:30 1018 30.06 847 25.01 -21.4 -6.5 80 -24.1 -11.3
07:35 1018 30.06 847 25.01 -21.5 -6.6 79 -24.2 -11.5
07:40 1018 30.06 847 25.01 -21.7 -7 80 -24.3 -11.7
07:45 1018 30.06 847 25.01 -21.8 -7.2 80 -24.3 -11.8
07:50 1018 30.06 847 25.01 -21.7 -7.1 80 -24.3 -11.7
07:55 1018 30.06 847 25.01 -21.7 -7.1 80 -24.4 -11.9
08:00 1018 30.06 847 25.01 -21.9 -7.5 79 -24.7 -12.5
08:05 1018 30.06 847 25.01 -22.2 -7.9 80 -24.7 -12.5
08:10 1018 30.06 848 25.04 -22.1 -7.8 79 -24.7 -12.5
08:15 1018 30.06 848 25.04 -22.4 -8.2 78 -25.2 -13.4
08:20 1018 30.06 848 25.04 -22.7 -8.8 82 -25 -13
08:25 1019 30.09 848 25.04 -22.2 -7.9 80 -24.7 -12.4
08:30 1019 30.09 848 25.04 -22.1 -7.8 79 -24.8 -12.7
08:35 1019 30.09 848 25.04 -22.4 -8.3 79 -25.1 -13.2
08:40 1019 30.09 848 25.04 -22.5 -8.5 78 -25.3 -13.6
08:45 1019 30.09 848 25.04 -22.7 -8.8 81 -25.1 -13.3
08:50 1019 30.09 848 25.04 -22.4 -8.3 80 -24.9 -12.9
08:55 1019 30.09 848 25.04 -22.5 -8.5 81 -24.9 -12.8
09:00 1019 30.09 848 25.04 -22 -7.6 80 -24.5 -12.1
09:05 1019 30.09 848 25.04 -21.6 -6.9 80 -24.2 -11.6
09:10 1019 30.09 848 25.04 -21.2 -6.2 79 -24 -11.1
09:15 1019 30.09 849 25.07 -21.2 -6.2 79 -24 -11.2
09:20 1019 30.09 849 25.07 -21.4 -6.6 77 -24.4 -11.9
09:25 1019 30.09 849 25.07 -21.7 -7.1 77 -24.7 -12.4
09:30 1019 30.09 849 25.07 -21.9 -7.5 79 -24.7 -12.5
09:35 1019 30.09 849 25.07 -21.6 -6.9 79 -24.4 -11.8
09:40 1020 30.12 849 25.07 -21.2 -6.1 78 -24 -11.2
09:45 1020 30.12 849 25.07 -20.8 -5.4 78 -23.6 -10.5
09:50 1020 30.12 849 25.07 -20.6 -5.1 79 -23.4 -10.2
09:55 1020 30.12 849 25.07 -20.4 -4.6 78 -23.3 -10
10:00 1020 30.12 849 25.07 -19.9 -3.8 77 -23 -9.4
10:05 1020 30.12 849 25.07 -19.3 -2.8 76 -22.6 -8.7
10:10 1020 30.12 849 25.07 -18.9 -2 77 -21.9 -7.4
10:15 1020 30.12 849 25.07 -18.3 -1 76 -21.6 -6.8
10:20 1020 30.12 849 25.07 -18 -0.4 74 -21.5 -6.7
10:25 1020 30.12 849 25.07 -17.9 -0.2 76 -21.1 -6.1
10:30 1020 30.12 849 25.07 -17.4 0.6 74 -21 -5.7
10:35 1020 30.12 849 25.07 -17.3 0.8 72 -21.2 -6.2
10:40 1020 30.12 850 25.1 -17.6 0.4 74 -21.2 -6.1
10:45 1021 30.15 850 25.1 -17.5 0.6 72 -21.3 -6.4
10:50 1021 30.15 850 25.1 -17.5 0.4 75 -21 -5.8
10:55 1021 30.15 850 25.1 -17 1.5 75 -20.4 -4.7
11:00 1021 30.15 850 25.1 -16.3 2.7 71 -20.3 -4.6
11:05 1021 30.15 850 25.1 -16.4 2.4 70 -20.7 -5.2
11:10 1021 30.15 850 25.1 -16.9 1.6 72 -20.9 -5.6
11:15 1021 30.15 850 25.1 -17.4 0.8 73 -21.2 -6.1
11:20 1021 30.15 850 25.1 -17.9 -0.3 75 -21.3 -6.3
11:25 1021 30.15 850 25.1 -17.8 -0 74 -21.4 -6.6
11:30 1021 30.15 850 25.1 -17.6 0.3 73 -21.3 -6.3
11:35 1021 30.15 850 25.1 -17.4 0.7 73 -21.1 -6
11:40 1021 30.15 850 25.1 -17.1 1.2 74 -20.8 -5.4
11:45 1021 30.15 851 25.13 -16.6 2.1 73 -20.4 -4.8
11:50 1021 30.15 851 25.13 -16.3 2.6 70 -20.6 -5.1
11:55 1021 30.15 851 25.13 -16.2 2.8 70 -20.5 -4.9
12:00 1021 30.15 850 25.1 -16.1 3.1 71 -20.2 -4.3
12:05 1021 30.15 850 25.1 -15.6 3.9 71 -19.8 -3.7
12:10 1021 30.15 850 25.1 -15.6 4 71 -19.7 -3.5
12:15 1021 30.15 850 25.1 -15.2 4.6 70 -19.6 -3.2
12:20 1021 30.15 850 25.1 -14.5 5.9 66 -19.6 -3.3
12:25 1021 30.15 850 25.1 -13.9 6.9 65 -19.2 -2.6
12:30 1021 30.15 850 25.1 -14.2 6.4 68 -18.9 -2.1
12:35 1021 30.15 850 25.1 -13.8 7.2 66 -18.9 -2.1
12:40 1021 30.15 851 25.13 -13.3 8.1 65 -18.5 -1.3
12:45 1021 30.15 851 25.13 -12.8 8.9 62 -18.6 -1.5
12:50 1021 30.15 851 25.13 -13.1 8.5 65 -18.4 -1.1
12:55 1022 30.18 851 25.13 -14.2 6.5 67 -19.1 -2.4
13:00 1022 30.18 851 25.13 -14 6.8 64 -19.5 -3.1
13:05 1022 30.18 851 25.13 -13.3 8 60 -19.6 -3.3
13:10 1022 30.18 851 25.13 -13.7 7.4 60 -19.9 -3.8
13:15 1022 30.18 851 25.13 -13.2 8.3 62 -19 -2.1
13:20 1022 30.18 851 25.13 -13.4 7.9 60 -19.5 -3.2
13:25 1022 30.18 851 25.13 -13.6 7.5 62 -19.4 -3
13:30 1022 30.18 851 25.13 -13.4 7.9 61 -19.4 -2.9
13:35 1022 30.18 851 25.13 -13.1 8.4 60 -19.4 -2.9
13:40 1022 30.18 851 25.13 -12.7 9.1 60 -18.9 -2.1
13:45 1022 30.18 851 25.13 -12.8 8.9 58 -19.5 -3.1
13:50 1022 30.18 851 25.13 -13.6 7.6 60 -19.8 -3.6
13:55 1022 30.18 851 25.13 -13.7 7.3 61 -19.8 -3.6
14:00 1022 30.18 851 25.13 -13.7 7.3 61 -19.8 -3.7
14:05 1022 30.18 851 25.13 -13.7 7.3 61 -19.8 -3.6
14:10 1022 30.18 851 25.13 -13.4 7.9 60 -19.6 -3.3
14:15 1022 30.18 851 25.13 -12.9 8.7 59 -19.4 -3
14:20 1022 30.18 851 25.13 -13.3 8.1 60 -19.4 -3
14:25 1022 30.18 851 25.13 -13.3 8.2 62 -19.2 -2.5
14:30 1022 30.18 851 25.13 -12.3 9.8 58 -19 -2.2
14:35 1022 30.18 851 25.13 -11.8 10.7 56 -19 -2.2
14:40 1022 30.18 851 25.13 -12.2 10.1 57 -19 -2.2
14:45 1022 30.18 851 25.13 -11.9 10.6 57 -18.7 -1.7
14:50 1022 30.18 851 25.13 -11.7 11 55 -19 -2.2
14:55 1022 30.18 851 25.13 -11.6 11.2 54 -19.1 -2.3
15:00 1022 30.18 851 25.13 -11.8 10.8 54 -19.3 -2.7
15:05 1021 30.15 851 25.13 -11.6 11.2 53 -19.3 -2.8
15:10 1021 30.15 851 25.13 -11.4 11.5 52 -19.4 -2.9
15:15 1021 30.15 851 25.13 -11.2 11.9 53 -19.1 -2.3
15:20 1021 30.15 851 25.13 -11.5 11.3 54 -19 -2.3
15:25 1021 30.15 851 25.13 -11.4 11.4 52 -19.4 -2.9
15:30 1021 30.15 851 25.13 -11.6 11.2 54 -19.2 -2.6
15:35 1021 30.15 851 25.13 -11.8 10.7 54 -19.3 -2.8
15:40 1021 30.15 851 25.13 -11.7 11 53 -19.3 -2.8
15:45 1021 30.15 851 25.13 -11.6 11.1 54 -19.1 -2.4
15:50 1021 30.15 851 25.13 -11.6 11.1 55 -19 -2.3
15:55 1022 30.18 851 25.13 -12 10.4 57 -18.9 -2.1
16:00 1022 30.18 851 25.13 -12.3 9.9 55 -19.7 -3.4
16:05 1022 30.18 851 25.13 -12.4 9.8 58 -19.1 -2.3
16:10 1022 30.18 851 25.13 -12.9 8.9 59 -19.2 -2.6
16:15 1022 30.18 851 25.13 -13.2 8.2 59 -19.5 -3.2
16:20 1022 30.18 851 25.13 -13.6 7.5 62 -19.5 -3.1
16:25 1022 30.18 851 25.13 -13.5 7.7 60 -19.6 -3.3
16:30 1022 30.18 851 25.13 -13.8 7.2 62 -19.7 -3.4
16:35 1022 30.18 851 25.13 -13.8 7.1 61 -19.8 -3.7
16:40 1022 30.18 851 25.13 -14.1 6.6 62 -19.9 -3.8
16:45 1022 30.18 851 25.13 -14.1 6.7 62 -19.9 -3.8
16:50 1022 30.18 851 25.13 -13.5 7.7 59 -19.9 -3.8
16:55 1022 30.18 851 25.13 -13 8.6 58 -19.5 -3.2
17:00 1022 30.18 851 25.13 -12.7 9.1 58 -19.5 -3
17:05 1022 30.18 851 25.13 -12.8 8.9 58 -19.4 -3
17:10 1022 30.18 851 25.13 -13 8.5 60 -19.3 -2.8
17:15 1022 30.18 851 25.13 -13.5 7.6 61 -19.6 -3.3
17:20 1022 30.18 851 25.13 -14.2 6.5 64 -19.6 -3.4
17:25 1022 30.18 851 25.13 -14.7 5.6 66 -19.7 -3.4
17:30 1022 30.18 851 25.13 -15.1 4.9 68 -19.7 -3.5
17:35 1022 30.18 851 25.13 -15.5 4.1 70 -19.8 -3.6
17:40 1022 30.18 851 25.13 -15.8 3.6 72 -19.8 -3.6
17:45 1021 30.15 851 25.13 -15.9 3.3 72 -19.9 -3.9
17:50 1021 30.15 851 25.13 -16 3.2 73 -19.8 -3.7
17:55 1021 30.15 851 25.13 -16.1 3.1 73 -19.9 -3.8
18:00 1021 30.15 851 25.13 -15.8 3.6 72 -19.7 -3.5
18:05 1021 30.15 851 25.13 -15.7 3.7 71 -19.8 -3.7
18:10 1021 30.15 851 25.13 -15.6 3.8 72 -19.6 -3.4
18:15 1021 30.15 851 25.13 -15.5 4.1 70 -19.8 -3.6
18:20 1021 30.15 851 25.13 -15.4 4.3 71 -19.6 -3.3
18:25 1021 30.15 851 25.13 -15.4 4.4 71 -19.5 -3.2
18:30 1021 30.15 851 25.13 -15.5 4.1 71 -19.6 -3.3
18:35 1021 30.15 851 25.13 -15.9 3.4 73 -19.6 -3.3
18:40 1021 30.15 851 25.13 -16.3 2.7 75 -19.8 -3.7
18:45 1021 30.15 851 25.13 -16.4 2.5 76 -19.7 -3.5
18:50 1021 30.15 851 25.13 -16.8 1.8 77 -19.8 -3.7
18:55 1021 30.15 851 25.13 -17.1 1.2 79 -19.9 -3.8
19:00 1021 30.15 851 25.13 -17.2 1 80 -20 -3.9
19:05 1021 30.15 851 25.13 -17.4 0.6 80 -20.1 -4.1
19:10 1022 30.18 851 25.13 -17.5 0.5 81 -20.1 -4.1
19:15 1022 30.18 851 25.13 -17.3 0.8 79 -20.1 -4.2
19:20 1022 30.18 851 25.13 -17.4 0.7 79 -20.1 -4.2
19:25 1022 30.18 851 25.13 -17.3 0.9 78 -20.3 -4.5
19:30 1022 30.18 851 25.13 -17.4 0.6 78 -20.5 -4.8
19:35 1022 30.18 851 25.13 -17.6 0.3 78 -20.6 -5.1
19:40 1022 30.18 851 25.13 -17.6 0.3 78 -20.6 -5.1
19:45 1022 30.18 851 25.13 -17.6 0.4 76 -20.8 -5.5
19:50 1022 30.18 851 25.13 -17.6 0.4 76 -20.9 -5.6
19:55 1022 30.18 851 25.13 -17.7 0.2 76 -21 -5.9
20:00 1022 30.18 851 25.13 -17.8 -0.1 77 -21 -5.7
20:05 1022 30.18 851 25.13 -18 -0.4 79 -20.8 -5.5
20:10 1022 30.18 851 25.13 -18.1 -0.6 79 -20.9 -5.7
20:15 1022 30.18 851 25.13 -18.2 -0.8 80 -20.8 -5.5
20:20 1022 30.18 851 25.13 -18.4 -1 81 -20.9 -5.5
20:25 1022 30.18 851 25.13 -18.3 -0.9 81 -20.9 -5.6
20:30 1022 30.18 851 25.13 -18.3 -0.9 80 -20.9 -5.6
20:35 1022 30.18 851 25.13 -18.1 -0.6 80 -20.8 -5.4
20:40 1022 30.18 851 25.13 -18.2 -0.7 81 -20.7 -5.2
20:45 1022 30.18 851 25.13 -18.1 -0.6 80 -20.8 -5.4
20:50 1022 30.18 851 25.13 -18.1 -0.7 81 -20.7 -5.3
20:55 1022 30.18 851 25.13 -18 -0.3 81 -20.4 -4.8
21:00 1022 30.18 851 25.13 -17.8 -0.1 79 -20.6 -5.1
21:05 1022 30.18 851 25.13 -17.9 -0.3 78 -20.8 -5.5
21:10 1022 30.18 851 25.13 -18.1 -0.5 79 -20.8 -5.5
21:15 1022 30.18 851 25.13 -18 -0.4 79 -20.7 -5.3
21:20 1022 30.18 851 25.13 -17.9 -0.3 78 -20.8 -5.5
21:25 1022 30.18 851 25.13 -18.2 -0.7 79 -20.9 -5.7
21:30 1022 30.18 851 25.13 -18.3 -0.9 80 -21 -5.8
21:35 1022 30.18 851 25.13 -18.3 -0.9 79 -21 -5.9
21:40 1022 30.18 851 25.13 -18.5 -1.3 80 -21.1 -6
21:45 1022 30.18 851 25.13 -18.6 -1.5 80 -21.2 -6.2
21:50 1022 30.18 851 25.13 -18.8 -1.8 80 -21.3 -6.4
21:55 1022 30.18 851 25.13 -18.9 -2 80 -21.5 -6.7
22:00 1022 30.18 851 25.13 -18.9 -2 80 -21.5 -6.8
22:05 1022 30.18 851 25.13 -19 -2.1 80 -21.5 -6.8
22:10 1022 30.18 851 25.13 -19 -2.2 80 -21.6 -6.9
22:15 1022 30.18 851 25.13 -19.1 -2.3 80 -21.7 -7
22:20 1022 30.18 851 25.13 -19.1 -2.3 80 -21.7 -7
22:25 1022 30.18 851 25.13 -19.1 -2.4 79 -22 -7.5
22:30 1022 30.18 851 25.13 -19.3 -2.8 78 -22.2 -8
22:35 1022 30.18 851 25.13 -19.4 -2.9 80 -22 -7.6
22:40 1022 30.18 851 25.13 -19.3 -2.7 80 -21.9 -7.4
22:45 1022 30.18 851 25.13 -19.2 -2.6 78 -22.1 -7.8
22:50 1022 30.18 851 25.13 -19.4 -2.9 79 -22.2 -7.9
22:55 1022 30.18 851 25.13 -19.3 -2.7 78 -22.1 -7.9
23:00 1022 30.18 851 25.13 -19.2 -2.6 79 -22.1 -7.7
23:05 1022 30.18 851 25.13 -19.2 -2.5 78 -22.1 -7.7
23:10 1022 30.18 851 25.13 -19.2 -2.5 78 -22.1 -7.8
23:15 1022 30.18 851 25.13 -19.2 -2.6 77 -22.3 -8.2
23:20 1022 30.18 851 25.13 -19.3 -2.8 78 -22.2 -7.9
23:25 1022 30.18 851 25.13 -19.2 -2.5 78 -22.2 -7.9
23:30 1022 30.18 851 25.13 -18.8 -1.9 76 -22.1 -7.7
23:35 1022 30.18 851 25.13 -19.1 -2.4 79 -21.8 -7.3
23:40 1022 30.18 851 25.13 -19.2 -2.6 81 -21.7 -7.1
23:45 1022 30.18 851 25.13 -19 -2.2 79 -21.9 -7.3
23:50 1022 30.18 851 25.13 -19 -2.3 81 -21.5 -6.8
23:55 1022 30.18 851 25.13 -18.6 -1.4 80 -21.2 -6.2
24:00 1022 30.18 851 25.13 -18.3 -0.9 79 -21.1 -5.9